Time;durP1;ratioP1;P1;durP2;ratioP2;P2;SDS_P1;SDS_P2;PMS_P1;PMS_P2;Temp;Humidity;BMP_temperature;BMP_pressure;BME280_temperature;BME280_humidity;BME280_pressure;Samples;Min_cycle;Max_cycle;Signal;HPM_P1;HPM_P2
2024/02/11 00:00:10;;;;;;;35.03;21.40;;;8.90;99.90;;;;;;5054818;28;20450;-67
2024/02/11 00:02:40;;;;;;;29.60;19.87;;;8.90;99.90;;;;;;5055889;28;20987;-66
2024/02/11 00:05:09;;;;;;;28.07;18.43;;;9.00;99.90;;;;;;5068127;28;20467;-67
2024/02/11 00:07:39;;;;;;;34.03;19.57;;;8.90;99.90;;;;;;5053513;28;20444;-66
2024/02/11 00:10:08;;;;;;;31.47;20.00;;;8.80;99.90;;;;;;5059294;28;20444;-65
2024/02/11 00:12:36;;;;;;;35.10;21.77;;;8.80;99.90;;;;;;5052150;28;21006;-66
2024/02/11 00:15:07;;;;;;;33.93;22.23;;;8.80;99.90;;;;;;5064656;28;20449;-67
2024/02/11 00:17:35;;;;;;;36.23;23.90;;;8.70;99.90;;;;;;5066562;28;20563;-66
2024/02/11 00:20:06;;;;;;;30.30;18.67;;;8.70;99.90;;;;;;5075161;28;20439;-67
2024/02/11 00:22:35;;;;;;;36.77;21.87;;;8.80;99.90;;;;;;5074374;28;20457;-67
2024/02/11 00:25:04;;;;;;;35.23;22.00;;;8.90;99.90;;;;;;5073300;28;20435;-67
2024/02/11 00:27:32;;;;;;;35.23;20.60;;;8.80;99.90;;;;;;5067627;28;20454;-68
2024/02/11 00:30:01;;;;;;;30.13;20.37;;;8.80;99.90;;;;;;5072984;28;20450;-65
2024/02/11 00:32:29;;;;;;;32.70;20.27;;;8.90;99.90;;;;;;5065988;28;21311;-67
2024/02/11 00:34:57;;;;;;;27.40;17.83;;;8.80;99.90;;;;;;5063119;28;21026;-68
2024/02/11 00:37:29;;;;;;;29.80;17.13;;;8.80;99.90;;;;;;5063349;28;20439;-68
2024/02/11 00:39:57;;;;;;;29.70;20.70;;;8.90;99.90;;;;;;5063186;28;20485;-67
2024/02/11 00:42:27;;;;;;;31.47;17.87;;;8.90;99.90;;;;;;5062674;28;21294;-67
2024/02/11 00:44:56;;;;;;;30.60;16.80;;;8.90;99.90;;;;;;5059823;28;20819;-66
2024/02/11 00:47:24;;;;;;;29.80;17.67;;;9.00;99.90;;;;;;5064015;28;20449;-65
2024/02/11 00:49:54;;;;;;;30.53;19.10;;;8.90;99.90;;;;;;5055935;28;20438;-68
2024/02/11 00:52:22;;;;;;;25.90;16.10;;;8.90;99.90;;;;;;5063225;28;20593;-66
2024/02/11 00:54:51;;;;;;;27.37;16.97;;;8.90;99.90;;;;;;5069364;28;20446;-66
2024/02/11 00:57:20;;;;;;;23.90;16.20;;;8.80;99.90;;;;;;5067742;28;20447;-65
2024/02/11 00:59:47;;;;;;;28.37;17.20;;;8.80;99.90;;;;;;5067595;28;20486;-67
2024/02/11 01:02:15;;;;;;;27.60;17.40;;;8.80;99.90;;;;;;5063342;28;20459;-67
2024/02/11 01:04:43;;;;;;;26.40;15.60;;;8.80;99.90;;;;;;5057991;28;21013;-65
2024/02/11 01:07:12;;;;;;;27.80;17.50;;;8.80;99.90;;;;;;5067203;28;20450;-66
2024/02/11 01:09:40;;;;;;;30.73;18.93;;;8.80;99.90;;;;;;5065818;28;20451;-67
2024/02/11 01:12:11;;;;;;;30.07;19.20;;;8.80;99.90;;;;;;5048377;28;20482;-66
2024/02/11 01:14:39;;;;;;;26.63;16.47;;;8.80;99.90;;;;;;5042993;28;20471;-68
2024/02/11 01:17:07;;;;;;;28.13;17.60;;;8.80;99.90;;;;;;5051298;28;20506;-68
2024/02/11 01:19:36;;;;;;;26.40;16.87;;;8.80;99.90;;;;;;5064105;28;20491;-68
2024/02/11 01:22:04;;;;;;;27.07;16.07;;;8.80;99.90;;;;;;5064702;28;20495;-69
2024/02/11 01:24:34;;;;;;;29.10;18.10;;;8.80;99.90;;;;;;5063902;28;20448;-67
2024/02/11 01:27:02;;;;;;;25.80;15.87;;;8.90;99.90;;;;;;5065047;28;20559;-68
2024/02/11 01:29:31;;;;;;;29.80;18.33;;;8.90;99.90;;;;;;5063547;28;20917;-69
2024/02/11 01:31:59;;;;;;;26.67;16.97;;;8.90;99.90;;;;;;5064392;28;20474;-66
2024/02/11 01:34:30;;;;;;;26.33;17.87;;;8.80;99.90;;;;;;5064020;28;20452;-69
2024/02/11 01:36:58;;;;;;;29.17;17.27;;;8.80;99.90;;;;;;5059369;28;20514;-66
2024/02/11 01:39:28;;;;;;;29.10;16.10;;;8.80;99.90;;;;;;5061928;28;20516;-68
2024/02/11 01:41:56;;;;;;;24.70;16.20;;;8.90;99.90;;;;;;5063538;28;20525;-67
2024/02/11 01:44:24;;;;;;;24.80;18.10;;;8.90;99.90;;;;;;5063653;28;20476;-67
2024/02/11 01:46:53;;;;;;;27.03;17.30;;;8.80;99.90;;;;;;5060598;28;20525;-68
2024/02/11 01:49:22;;;;;;;21.77;14.07;;;8.90;99.90;;;;;;5063663;28;21166;-68
2024/02/11 01:51:52;;;;;;;27.20;17.17;;;8.90;99.90;;;;;;5054052;28;20896;-68
2024/02/11 01:54:21;;;;;;;27.50;16.97;;;9.00;99.90;;;;;;5047870;28;20467;-68
2024/02/11 01:56:50;;;;;;;28.13;17.90;;;8.90;99.90;;;;;;5066826;28;20454;-68
2024/02/11 01:59:18;;;;;;;27.57;17.67;;;8.90;99.90;;;;;;5067246;28;20486;-69
2024/02/11 02:01:47;;;;;;;32.37;18.53;;;8.80;99.90;;;;;;5066209;28;20459;-70
2024/02/11 02:04:16;;;;;;;26.77;16.13;;;8.90;99.90;;;;;;5066665;28;20453;-70
2024/02/11 02:06:44;;;;;;;26.17;17.17;;;8.90;99.90;;;;;;5066961;28;20446;-70
2024/02/11 02:09:14;;;;;;;28.10;18.33;;;8.90;99.90;;;;;;5067200;28;20447;-70
2024/02/11 02:11:42;;;;;;;27.50;18.60;;;8.90;99.90;;;;;;5065838;28;21096;-69
2024/02/11 02:14:10;;;;;;;29.37;16.47;;;8.90;99.90;;;;;;5063063;28;20438;-69
2024/02/11 02:16:40;;;;;;;28.10;16.13;;;8.80;99.90;;;;;;5065513;28;20443;-70
2024/02/11 02:19:08;;;;;;;25.27;17.67;;;8.80;99.90;;;;;;5067922;28;21023;-68
2024/02/11 02:21:46;;;;;;;25.17;16.80;;;8.80;99.90;;;;;;5066993;28;20472;-68
2024/02/11 02:24:16;;;;;;;25.17;16.53;;;8.80;99.90;;;;;;5067334;28;21034;-68
2024/02/11 02:26:44;;;;;;;26.50;17.07;;;8.90;99.90;;;;;;5067347;28;20543;-69
2024/02/11 02:29:12;;;;;;;27.43;18.10;;;8.90;99.90;;;;;;5053549;28;20481;-68
2024/02/11 02:31:40;;;;;;;30.70;19.13;;;9.00;99.90;;;;;;5061408;28;20467;-68
2024/02/11 02:34:08;;;;;;;29.67;19.53;;;9.00;99.90;;;;;;5066795;28;20465;-69
2024/02/11 02:36:37;;;;;;;29.60;19.10;;;8.90;99.90;;;;;;5058759;28;20502;-69
2024/02/11 02:39:06;;;;;;;30.00;18.30;;;8.90;99.90;;;;;;5066627;28;20977;-70
2024/02/11 02:41:34;;;;;;;29.40;17.93;;;9.00;99.90;;;;;;5065680;28;20992;-69
2024/02/11 02:44:02;;;;;;;30.07;18.07;;;8.90;99.90;;;;;;5065591;28;20505;-69
2024/02/11 02:46:31;;;;;;;29.90;17.80;;;8.90;99.90;;;;;;5057912;28;20861;-68
2024/02/11 02:48:58;;;;;;;38.27;19.40;;;9.00;99.90;;;;;;5066384;28;20454;-68
2024/02/11 02:51:27;;;;;;;29.67;17.87;;;9.00;99.90;;;;;;5061014;28;20445;-68
2024/02/11 02:53:55;;;;;;;34.10;18.87;;;9.00;99.90;;;;;;5066504;28;20515;-68
2024/02/11 02:56:31;;;;;;;26.37;16.70;;;9.00;99.90;;;;;;5066142;28;20457;-69
2024/02/11 02:58:59;;;;;;;25.93;16.20;;;9.00;99.90;;;;;;5065734;28;20482;-70
2024/02/11 03:01:29;;;;;;;27.67;18.33;;;8.90;99.90;;;;;;5065323;28;20591;-68
2024/02/11 03:04:01;;;;;;;31.33;18.90;;;9.00;99.90;;;;;;5065715;28;20454;-68
2024/02/11 03:06:33;;;;;;;28.57;17.60;;;9.00;99.90;;;;;;5066192;28;20451;-68
2024/02/11 03:09:01;;;;;;;27.27;18.13;;;9.00;99.90;;;;;;5064069;28;20520;-67
2024/02/11 03:11:33;;;;;;;32.77;17.47;;;9.00;99.90;;;;;;5066471;28;20948;-67
2024/02/11 03:14:02;;;;;;;34.07;17.27;;;9.00;99.90;;;;;;5066830;28;20478;-65
2024/02/11 03:16:34;;;;;;;27.90;17.30;;;8.90;99.90;;;;;;5066379;28;20448;-68
2024/02/11 03:19:05;;;;;;;30.53;19.73;;;9.00;99.90;;;;;;5066465;28;20543;-67
2024/02/11 03:21:39;;;;;;;30.57;17.80;;;9.00;99.90;;;;;;5065116;28;20454;-66
2024/02/11 03:24:07;;;;;;;27.60;17.83;;;8.90;99.90;;;;;;5066386;28;20457;-69
2024/02/11 03:26:45;;;;;;;12.93;6.07;;;8.90;99.90;;;;;;5066516;28;20539;-69
2024/02/11 03:29:14;;;;;;;13.70;6.80;;;8.90;99.90;;;;;;5066419;28;20473;-69
2024/02/11 03:31:48;;;;;;;12.03;4.17;;;8.80;99.90;;;;;;5065283;28;21053;-67
2024/02/11 03:34:16;;;;;;;9.23;3.03;;;8.70;99.90;;;;;;5066092;28;20475;-69
2024/02/11 03:36:44;;;;;;;10.00;2.77;;;8.60;99.90;;;;;;5063943;28;20468;-69
2024/02/11 03:39:12;;;;;;;8.43;2.10;;;8.50;99.90;;;;;;5066824;28;20439;-69
2024/02/11 03:41:40;;;;;;;7.40;1.40;;;8.40;99.90;;;;;;5066450;28;20552;-68
2024/02/11 03:44:10;;;;;;;6.90;0.73;;;8.40;99.90;;;;;;5066836;28;20879;-68
2024/02/11 03:46:37;;;;;;;6.30;0.50;;;8.20;99.90;;;;;;5067051;28;20457;-69
2024/02/11 03:49:06;;;;;;;6.30;0.40;;;8.10;99.90;;;;;;5067032;28;20458;-68
2024/02/11 03:51:34;;;;;;;6.17;0.40;;;7.90;99.90;;;;;;5065658;28;20557;-67
2024/02/11 03:54:03;;;;;;;6.10;0.40;;;7.80;99.90;;;;;;5063932;28;20825;-68
2024/02/11 03:56:34;;;;;;;6.10;0.30;;;7.70;99.90;;;;;;5066017;28;20528;-68
2024/02/11 03:59:03;;;;;;;6.03;0.37;;;7.60;99.90;;;;;;5066262;28;20443;-69
2024/02/11 04:01:33;;;;;;;6.13;0.30;;;7.50;99.90;;;;;;5065307;28;20570;-70
2024/02/11 04:04:02;;;;;;;6.50;0.40;;;7.50;99.90;;;;;;5065766;28;20447;-67
2024/02/11 04:06:31;;;;;;;7.07;0.40;;;7.40;99.90;;;;;;5066204;28;20454;-68
2024/02/11 04:09:00;;;;;;;6.50;0.40;;;7.30;99.90;;;;;;5066354;28;20540;-68
2024/02/11 04:11:28;;;;;;;6.40;0.40;;;7.30;99.90;;;;;;5063400;28;20975;-68
2024/02/11 04:13:56;;;;;;;6.60;0.50;;;7.20;99.90;;;;;;5065760;28;20446;-68
2024/02/11 04:16:25;;;;;;;6.20;0.40;;;7.20;99.90;;;;;;5065625;28;20447;-68
2024/02/11 04:18:56;;;;;;;6.33;0.43;;;7.10;99.90;;;;;;5067278;28;20537;-65
2024/02/11 04:21:24;;;;;;;7.07;0.40;;;7.10;99.90;;;;;;5065981;28;20774;-68
2024/02/11 04:23:52;;;;;;;6.50;0.50;;;7.10;99.90;;;;;;5063886;28;20459;-69
2024/02/11 04:26:20;;;;;;;6.30;0.50;;;7.10;99.90;;;;;;5065638;28;20490;-68
2024/02/11 04:28:49;;;;;;;6.37;0.40;;;7.00;99.90;;;;;;5058161;28;20526;-69
2024/02/11 04:31:19;;;;;;;6.63;0.40;;;7.00;99.90;;;;;;5065004;28;20447;-70
2024/02/11 04:33:47;;;;;;;7.70;0.50;;;6.90;99.90;;;;;;5066056;28;20452;-69
2024/02/11 04:36:18;;;;;;;6.30;0.40;;;6.90;99.90;;;;;;5065469;28;20450;-69
2024/02/11 04:38:47;;;;;;;6.40;0.50;;;6.90;99.90;;;;;;5065823;28;20500;-69
2024/02/11 04:41:17;;;;;;;6.33;0.47;;;6.80;99.90;;;;;;5065389;28;20548;-68
2024/02/11 04:43:48;;;;;;;6.40;0.50;;;6.80;99.90;;;;;;5065570;28;20456;-68
2024/02/11 04:46:17;;;;;;;6.20;0.47;;;6.80;99.90;;;;;;5063484;28;20443;-69
2024/02/11 04:48:51;;;;;;;6.40;0.70;;;6.80;99.90;;;;;;5065364;28;20526;-69
2024/02/11 04:51:22;;;;;;;6.47;0.77;;;6.70;99.90;;;;;;5065189;28;20471;-69
2024/02/11 04:53:52;;;;;;;6.20;0.40;;;6.70;99.90;;;;;;5065732;28;20449;-69
2024/02/11 04:56:20;;;;;;;6.30;0.67;;;6.70;99.90;;;;;;5064441;28;20442;-69
2024/02/11 04:58:48;;;;;;;6.80;0.73;;;6.70;99.90;;;;;;5066518;28;20500;-70
2024/02/11 05:01:16;;;;;;;6.60;0.60;;;6.70;99.90;;;;;;5065668;28;20475;-67
2024/02/11 05:03:46;;;;;;;6.40;0.50;;;6.70;99.90;;;;;;5065218;28;21061;-68
2024/02/11 05:06:18;;;;;;;6.23;0.47;;;6.70;99.90;;;;;;5069143;28;20446;-69
2024/02/11 05:08:48;;;;;;;7.20;0.87;;;6.80;99.90;;;;;;5069684;28;20443;-69
2024/02/11 05:11:16;;;;;;;6.83;0.50;;;6.70;99.90;;;;;;5069162;28;20511;-68
2024/02/11 05:13:44;;;;;;;6.30;0.50;;;6.70;99.90;;;;;;5069603;28;20562;-69
2024/02/11 05:16:14;;;;;;;6.30;0.60;;;6.70;99.90;;;;;;5069487;28;20463;-69
2024/02/11 05:18:43;;;;;;;6.20;0.50;;;6.70;99.90;;;;;;5069528;28;21313;-68
2024/02/11 05:21:11;;;;;;;6.20;0.50;;;6.70;99.90;;;;;;5063989;28;20482;-69
2024/02/11 05:23:40;;;;;;;7.03;0.80;;;6.60;99.90;;;;;;5068658;28;20503;-69
2024/02/11 05:26:12;;;;;;;6.30;0.50;;;6.70;99.90;;;;;;5068333;28;20832;-69
2024/02/11 05:28:40;;;;;;;6.70;0.60;;;6.70;99.90;;;;;;5068438;28;20450;-69
2024/02/11 05:31:08;;;;;;;6.30;0.50;;;6.70;99.90;;;;;;5067594;28;20447;-69
2024/02/11 05:33:37;;;;;;;6.33;0.60;;;6.70;99.90;;;;;;5050224;28;20468;-69
2024/02/11 05:36:07;;;;;;;8.10;0.53;;;6.60;99.90;;;;;;5047723;28;20497;-69
2024/02/11 05:38:39;;;;;;;6.30;0.50;;;6.60;99.90;;;;;;5058583;28;20817;-69
2024/02/11 05:41:10;;;;;;;6.60;0.60;;;6.60;99.90;;;;;;5066538;28;20489;-69
2024/02/11 05:43:38;;;;;;;7.33;0.60;;;6.60;99.90;;;;;;5067854;28;20478;-70
2024/02/11 05:46:07;;;;;;;6.50;0.50;;;6.60;99.90;;;;;;5067748;28;20498;-70
2024/02/11 05:48:35;;;;;;;6.30;0.60;;;6.60;99.90;;;;;;5066961;28;21112;-69
2024/02/11 05:51:03;;;;;;;6.20;0.50;;;6.50;99.90;;;;;;5068282;28;20454;-70
2024/02/11 05:53:31;;;;;;;8.90;0.63;;;6.60;99.90;;;;;;5066748;28;20458;-69
2024/02/11 05:56:00;;;;;;;6.70;0.47;;;6.60;99.90;;;;;;5068023;28;20454;-70
2024/02/11 05:58:31;;;;;;;6.27;0.53;;;6.60;99.90;;;;;;5068030;28;20444;-70
2024/02/11 06:00:59;;;;;;;6.70;0.70;;;6.60;99.90;;;;;;5055549;28;21062;-69
2024/02/11 06:03:27;;;;;;;6.30;0.53;;;6.60;99.90;;;;;;5066591;28;20467;-69
2024/02/11 06:05:55;;;;;;;6.27;0.73;;;6.60;99.90;;;;;;5067518;28;20451;-69
2024/02/11 06:08:22;;;;;;;6.30;0.60;;;6.50;99.90;;;;;;5068105;28;20452;-70
2024/02/11 06:10:51;;;;;;;6.10;0.50;;;6.50;99.90;;;;;;5057938;28;20490;-67
2024/02/11 06:13:19;;;;;;;6.20;0.40;;;6.50;99.90;;;;;;5068447;28;20555;-69
2024/02/11 06:15:48;;;;;;;6.53;0.60;;;6.60;99.90;;;;;;5064712;28;20487;-68
2024/02/11 06:18:17;;;;;;;6.07;0.40;;;6.60;99.90;;;;;;5048153;28;20934;-69
2024/02/11 06:20:46;;;;;;;6.10;0.40;;;6.50;99.90;;;;;;5046791;28;20475;-69
2024/02/11 06:23:14;;;;;;;6.20;0.50;;;6.50;99.90;;;;;;5047573;28;20881;-70
2024/02/11 06:25:42;;;;;;;6.30;0.57;;;6.40;99.90;;;;;;5046697;28;20451;-69
2024/02/11 06:28:10;;;;;;;6.30;0.50;;;6.40;99.90;;;;;;5048779;28;20466;-69
2024/02/11 06:30:38;;;;;;;6.60;0.40;;;6.50;99.90;;;;;;5047222;28;20518;-68
2024/02/11 06:33:10;;;;;;;6.17;0.43;;;6.50;99.90;;;;;;5047120;28;20472;-68
2024/02/11 06:35:47;;;;;;;6.60;0.60;;;6.40;99.90;;;;;;5046799;28;20543;-69
2024/02/11 06:38:14;;;;;;;6.20;0.60;;;6.40;99.90;;;;;;5047537;28;20440;-70
2024/02/11 06:40:43;;;;;;;6.70;0.50;;;6.40;99.90;;;;;;5046609;28;20452;-68
2024/02/11 06:43:11;;;;;;;6.20;0.53;;;6.40;99.90;;;;;;5047119;28;20496;-68
2024/02/11 06:45:45;;;;;;;6.80;0.73;;;6.40;99.90;;;;;;5049644;28;20449;-69
2024/02/11 06:48:15;;;;;;;6.30;0.63;;;6.40;99.90;;;;;;5066325;28;20458;-69
2024/02/11 06:50:43;;;;;;;6.30;0.67;;;6.30;99.90;;;;;;5067169;28;20448;-69
2024/02/11 06:53:11;;;;;;;6.77;0.83;;;6.30;99.90;;;;;;5068116;28;20868;-68
2024/02/11 06:55:40;;;;;;;7.30;0.77;;;6.30;99.90;;;;;;5067610;28;20451;-69
2024/02/11 06:58:09;;;;;;;6.40;0.70;;;6.30;99.90;;;;;;5067905;28;20504;-69
2024/02/11 07:00:37;;;;;;;6.43;0.57;;;6.30;99.90;;;;;;5066531;28;20451;-68
2024/02/11 07:03:06;;;;;;;7.80;1.10;;;6.30;99.90;;;;;;5059997;28;20510;-68
2024/02/11 07:05:38;;;;;;;6.80;0.77;;;6.30;99.90;;;;;;5046310;28;20489;-69
2024/02/11 07:08:08;;;;;;;6.70;0.80;;;6.30;99.90;;;;;;5046884;28;20448;-69
2024/02/11 07:10:36;;;;;;;6.43;0.80;;;6.30;99.90;;;;;;5046198;28;20454;-67
2024/02/11 07:13:05;;;;;;;6.20;0.53;;;6.30;99.90;;;;;;5046776;28;20525;-69
2024/02/11 07:15:35;;;;;;;7.70;1.00;;;6.40;99.90;;;;;;5046270;28;20447;-68
2024/02/11 07:18:03;;;;;;;6.60;1.07;;;6.30;99.90;;;;;;5046297;28;20550;-68
2024/02/11 07:20:31;;;;;;;6.70;0.80;;;6.30;99.90;;;;;;5050076;28;20436;-68
2024/02/11 07:23:01;;;;;;;7.30;1.10;;;6.30;99.90;;;;;;5066314;28;21367;-69
2024/02/11 07:25:30;;;;;;;6.93;1.20;;;6.30;99.90;;;;;;5065882;28;20444;-69
2024/02/11 07:27:58;;;;;;;7.27;0.97;;;6.30;99.90;;;;;;5065078;28;20446;-68
2024/02/11 07:30:27;;;;;;;7.00;1.00;;;6.30;99.90;;;;;;5067065;28;20516;-68
2024/02/11 07:32:56;;;;;;;7.13;1.10;;;6.40;99.90;;;;;;5067145;28;20473;-68
2024/02/11 07:35:24;;;;;;;7.30;1.30;;;6.30;99.90;;;;;;5067154;28;20466;-69
2024/02/11 07:37:52;;;;;;;7.27;1.20;;;6.40;99.90;;;;;;5048441;28;20449;-68
2024/02/11 07:40:21;;;;;;;7.30;1.00;;;6.40;99.90;;;;;;5067171;28;20819;-69
2024/02/11 07:42:49;;;;;;;7.07;1.07;;;6.40;99.90;;;;;;5066542;28;20554;-68
2024/02/11 07:45:17;;;;;;;7.97;1.53;;;6.40;99.90;;;;;;5067376;28;21092;-70
2024/02/11 07:47:47;;;;;;;7.37;1.20;;;6.30;99.90;;;;;;5067412;28;20447;-69
2024/02/11 07:50:16;;;;;;;7.37;1.23;;;6.40;99.90;;;;;;5067725;28;20442;-70
2024/02/11 07:52:46;;;;;;;8.10;1.10;;;6.40;99.90;;;;;;5066822;28;20975;-70
2024/02/11 07:55:16;;;;;;;7.30;1.30;;;6.40;99.90;;;;;;5065114;28;20443;-70
2024/02/11 07:57:46;;;;;;;6.93;1.27;;;6.50;99.90;;;;;;5047412;28;20453;-70
2024/02/11 08:00:19;;;;;;;7.60;1.30;;;6.50;99.90;;;;;;5046889;28;20457;-70
2024/02/11 08:02:50;;;;;;;6.93;1.37;;;6.50;99.90;;;;;;5046241;28;20509;-69
2024/02/11 08:05:19;;;;;;;7.60;1.23;;;6.50;99.90;;;;;;5046615;28;20444;-69
2024/02/11 08:07:47;;;;;;;7.90;1.40;;;6.50;99.90;;;;;;5046872;28;20453;-69
2024/02/11 08:10:16;;;;;;;8.70;1.93;;;6.60;99.90;;;;;;5046670;28;21170;-68
2024/02/11 08:12:45;;;;;;;8.00;1.80;;;6.70;99.90;;;;;;5047309;28;20464;-68
2024/02/11 08:15:14;;;;;;;9.13;1.70;;;6.80;99.90;;;;;;5066355;28;20504;-69
2024/02/11 08:17:42;;;;;;;8.30;2.00;;;6.90;99.90;;;;;;5066579;28;20481;-70
2024/02/11 08:20:15;;;;;;;12.20;2.10;;;6.80;99.90;;;;;;5066800;28;20458;-70
2024/02/11 08:22:44;;;;;;;8.53;1.80;;;6.90;99.90;;;;;;5066362;28;20487;-69
2024/02/11 08:25:13;;;;;;;10.17;2.60;;;7.00;99.90;;;;;;5066631;28;20508;-71
2024/02/11 08:27:42;;;;;;;7.80;1.60;;;7.00;99.90;;;;;;5066552;28;20986;-70
2024/02/11 08:30:12;;;;;;;8.17;1.90;;;7.00;99.90;;;;;;5067137;28;20454;-69
2024/02/11 08:32:42;;;;;;;8.17;2.27;;;7.00;99.90;;;;;;5047175;28;20468;-69
2024/02/11 08:35:11;;;;;;;8.50;2.20;;;7.10;99.90;;;;;;5046486;28;20447;-69
2024/02/11 08:37:39;;;;;;;9.80;3.03;;;7.10;99.90;;;;;;5065216;28;20994;-69
2024/02/11 08:40:10;;;;;;;9.23;2.93;;;7.00;99.90;;;;;;5070798;28;20446;-69
2024/02/11 08:42:42;;;;;;;9.90;2.47;;;7.10;99.90;;;;;;5069999;28;20954;-69
2024/02/11 08:45:11;;;;;;;9.03;2.43;;;7.20;99.90;;;;;;5070312;28;20439;-69
2024/02/11 08:47:42;;;;;;;10.43;3.07;;;7.30;99.90;;;;;;5070551;28;20480;-70
2024/02/11 08:50:11;;;;;;;10.40;3.07;;;7.40;99.90;;;;;;5071023;28;20504;-69
2024/02/11 08:52:40;;;;;;;10.33;3.03;;;7.50;99.90;;;;;;5063762;28;20863;-69
2024/02/11 08:55:09;;;;;;;10.53;3.63;;;7.50;99.90;;;;;;5064257;28;20517;-69
2024/02/11 08:57:37;;;;;;;10.30;3.53;;;7.50;99.90;;;;;;5069924;28;20451;-69
2024/02/11 09:00:08;;;;;;;11.77;3.20;;;7.60;99.90;;;;;;5070041;28;20991;-70
2024/02/11 09:02:38;;;;;;;10.60;3.40;;;7.70;99.90;;;;;;5069622;28;20510;-67
2024/02/11 09:05:07;;;;;;;10.67;3.87;;;7.90;99.90;;;;;;5069745;28;20445;-69
2024/02/11 09:07:35;;;;;;;9.50;3.23;;;8.00;99.90;;;;;;5069604;28;20456;-69
2024/02/11 09:10:05;;;;;;;9.80;3.83;;;8.20;99.90;;;;;;5067781;28;20443;-70
2024/02/11 09:12:34;;;;;;;9.80;3.63;;;8.20;99.90;;;;;;5057447;28;20471;-70
2024/02/11 09:15:02;;;;;;;10.30;3.40;;;8.30;99.90;;;;;;5049743;28;20443;-71
2024/02/11 09:17:32;;;;;;;9.27;3.10;;;8.40;99.90;;;;;;5049506;28;20929;-70
2024/02/11 09:20:02;;;;;;;16.53;4.00;;;8.50;99.90;;;;;;5061816;28;20532;-69
2024/02/11 09:22:32;;;;;;;12.27;4.17;;;8.70;99.90;;;;;;5068669;28;20472;-69
2024/02/11 09:25:00;;;;;;;9.87;3.60;;;8.70;99.90;;;;;;5069305;28;20475;-68
2024/02/11 09:27:29;;;;;;;10.20;3.27;;;8.80;99.90;;;;;;5069258;28;20524;-68
2024/02/11 09:29:57;;;;;;;10.43;3.10;;;8.70;99.90;;;;;;5069703;28;20440;-68
2024/02/11 09:32:25;;;;;;;11.13;4.10;;;8.70;99.90;;;;;;5068843;28;20522;-69
2024/02/11 09:34:54;;;;;;;12.83;3.87;;;8.70;99.90;;;;;;5068828;28;20949;-68
2024/02/11 09:37:24;;;;;;;12.27;4.67;;;8.70;99.90;;;;;;5069663;28;20437;-67
2024/02/11 09:39:52;;;;;;;9.73;3.40;;;8.90;99.90;;;;;;5069785;28;20526;-67
2024/02/11 09:42:21;;;;;;;11.17;3.57;;;8.90;99.90;;;;;;5068918;28;20475;-67
2024/02/11 09:44:50;;;;;;;9.90;3.70;;;8.80;99.90;;;;;;5068523;28;20481;-67
2024/02/11 09:47:20;;;;;;;10.67;3.80;;;8.80;99.90;;;;;;5069379;28;20542;-67
2024/02/11 09:49:51;;;;;;;15.37;4.20;;;8.80;99.90;;;;;;5068405;28;20446;-69
2024/02/11 09:52:23;;;;;;;12.10;4.10;;;8.80;99.90;;;;;;5068487;28;20501;-67
2024/02/11 09:54:52;;;;;;;9.13;3.10;;;8.80;99.90;;;;;;5068884;28;20443;-68
2024/02/11 09:57:20;;;;;;;8.90;3.40;;;8.80;99.90;;;;;;5069200;28;20447;-68
2024/02/11 09:59:49;;;;;;;10.60;4.07;;;8.70;99.90;;;;;;5068740;28;20459;-72
2024/02/11 10:02:19;;;;;;;13.37;4.13;;;8.70;99.90;;;;;;5056059;28;20538;-68
2024/02/11 10:04:49;;;;;;;9.13;3.60;;;8.70;99.90;;;;;;5066911;28;21315;-67
2024/02/11 10:07:24;;;;;;;9.70;3.50;;;8.70;99.90;;;;;;5068887;28;20440;-67
2024/02/11 10:09:56;;;;;;;10.53;3.87;;;8.90;99.90;;;;;;5065417;28;20446;-68
2024/02/11 10:12:26;;;;;;;11.00;3.37;;;9.10;99.90;;;;;;5063855;28;20467;-67
2024/02/11 10:14:55;;;;;;;11.10;3.50;;;9.20;99.90;;;;;;5063077;28;20455;-68
2024/02/11 10:17:24;;;;;;;10.67;3.53;;;9.20;99.90;;;;;;5068551;28;20919;-69
2024/02/11 10:19:53;;;;;;;10.23;3.50;;;9.20;99.90;;;;;;5051362;28;20465;-68
2024/02/11 10:22:22;;;;;;;9.10;2.83;;;9.30;99.90;;;;;;5048210;28;20469;-67
2024/02/11 10:24:58;;;;;;;11.40;3.60;;;9.30;99.90;;;;;;5047754;28;20519;-70
2024/02/11 10:27:26;;;;;;;9.80;3.33;;;9.20;99.90;;;;;;5053312;28;20452;-70
2024/02/11 10:29:54;;;;;;;9.87;3.83;;;9.20;99.90;;;;;;5072248;28;20510;-71
2024/02/11 10:32:22;;;;;;;9.67;3.33;;;9.40;99.90;;;;;;5066386;28;20943;-68
2024/02/11 10:34:50;;;;;;;9.30;3.67;;;9.50;99.90;;;;;;5064955;28;20512;-68
2024/02/11 10:37:18;;;;;;;10.60;3.33;;;9.50;99.90;;;;;;5062139;28;20482;-68
2024/02/11 10:39:46;;;;;;;12.03;3.40;;;9.50;99.90;;;;;;5061887;28;21195;-68
2024/02/11 10:42:17;;;;;;;10.27;3.43;;;9.50;99.90;;;;;;5059923;28;20465;-69
2024/02/11 10:44:46;;;;;;;9.60;2.60;;;9.60;99.90;;;;;;5055680;28;20481;-68
2024/02/11 10:47:14;;;;;;;10.23;3.30;;;9.70;99.90;;;;;;5056593;28;20449;-68
2024/02/11 10:49:42;;;;;;;9.87;2.93;;;9.70;99.90;;;;;;5059483;28;20533;-67
2024/02/11 10:52:11;;;;;;;9.90;3.50;;;9.60;99.90;;;;;;5058352;28;20469;-67
2024/02/11 10:54:41;;;;;;;9.90;3.00;;;9.70;99.90;;;;;;5062476;28;20453;-68
2024/02/11 10:57:19;;;;;;;8.70;2.53;;;9.70;99.90;;;;;;5065255;28;20445;-68
2024/02/11 10:59:55;;;;;;;10.57;3.43;;;9.80;99.90;;;;;;5066461;28;20465;-68
2024/02/11 11:02:26;;;;;;;9.67;2.97;;;9.90;99.90;;;;;;5066868;28;20485;-67
2024/02/11 11:04:58;;;;;;;10.33;3.27;;;10.10;99.90;;;;;;5066835;28;20566;-69
2024/02/11 11:07:28;;;;;;;10.10;3.73;;;10.20;99.90;;;;;;5065955;28;20446;-69
2024/02/11 11:10:02;;;;;;;9.70;3.03;;;10.10;99.90;;;;;;5066270;28;20471;-66
2024/02/11 11:12:30;;;;;;;8.07;2.40;;;10.10;99.90;;;;;;5065302;28;20528;-68
2024/02/11 11:14:59;;;;;;;9.43;2.50;;;10.00;99.90;;;;;;5064031;28;20446;-69
2024/02/11 11:17:27;;;;;;;10.07;2.33;;;10.00;99.90;;;;;;5065826;28;20455;-69
2024/02/11 11:19:59;;;;;;;8.70;2.33;;;10.10;99.90;;;;;;5066127;28;20452;-69
2024/02/11 11:22:28;;;;;;;10.30;2.70;;;10.10;99.90;;;;;;5066709;28;20474;-68
2024/02/11 11:24:57;;;;;;;9.40;2.17;;;10.10;99.90;;;;;;5067206;28;20489;-69
2024/02/11 11:27:26;;;;;;;8.27;2.20;;;10.20;99.90;;;;;;5067308;28;21031;-69
2024/02/11 11:29:54;;;;;;;8.30;2.27;;;10.10;99.90;;;;;;5067242;28;21234;-69
2024/02/11 11:32:24;;;;;;;7.90;2.50;;;10.20;99.90;;;;;;5065169;28;20549;-69
2024/02/11 11:34:53;;;;;;;8.23;2.20;;;10.10;99.90;;;;;;5066702;28;20452;-69
2024/02/11 11:37:24;;;;;;;9.37;2.37;;;10.20;99.90;;;;;;5066326;28;20478;-69
2024/02/11 11:39:54;;;;;;;8.63;2.03;;;10.40;99.90;;;;;;5067354;28;20453;-69
2024/02/11 11:42:22;;;;;;;7.70;2.30;;;10.80;99.90;;;;;;5062809;28;20469;-69
2024/02/11 11:44:50;;;;;;;6.93;1.50;;;11.30;99.90;;;;;;5067088;28;20528;-68
2024/02/11 11:47:20;;;;;;;9.00;2.00;;;11.30;99.90;;;;;;5067291;28;20969;-69
2024/02/11 11:49:51;;;;;;;9.03;2.10;;;11.30;99.90;;;;;;5067297;28;20450;-69
2024/02/11 11:52:19;;;;;;;8.53;2.13;;;11.50;99.90;;;;;;5064870;28;20471;-69
2024/02/11 11:54:47;;;;;;;8.07;2.00;;;11.60;99.90;;;;;;5066491;28;20978;-69
2024/02/11 11:57:15;;;;;;;7.03;1.70;;;11.60;99.90;;;;;;5067450;28;20454;-69
2024/02/11 11:59:43;;;;;;;9.90;1.80;;;11.70;99.90;;;;;;5050115;28;20893;-68
2024/02/11 12:02:11;;;;;;;7.90;1.80;;;11.60;99.90;;;;;;5046669;28;20642;-68
2024/02/11 12:04:40;;;;;;;8.33;1.60;;;11.60;99.90;;;;;;5046743;28;20489;-69
2024/02/11 12:07:10;;;;;;;7.90;1.63;;;11.50;99.90;;;;;;5047504;28;20466;-68
2024/02/11 12:09:38;;;;;;;8.87;1.50;;;11.60;99.90;;;;;;5048877;28;20454;-69
2024/02/11 12:12:06;;;;;;;6.70;1.23;;;11.40;99.90;;;;;;5066922;28;20549;-68
2024/02/11 12:14:36;;;;;;;7.63;1.97;;;11.20;99.90;;;;;;5070815;28;20454;-68
2024/02/11 12:17:05;;;;;;;7.20;1.17;;;11.40;99.90;;;;;;5071730;28;20894;-69
2024/02/11 12:19:38;;;;;;;6.43;1.30;;;11.40;99.90;;;;;;5071815;28;20530;-69
2024/02/11 12:22:07;;;;;;;9.93;1.60;;;11.50;99.90;;;;;;5070524;28;20538;-69
2024/02/11 12:24:38;;;;;;;7.13;1.30;;;11.50;99.90;;;;;;5069373;28;20563;-70
2024/02/11 12:27:07;;;;;;;6.57;1.10;;;11.40;99.90;;;;;;5068492;28;20454;-69
2024/02/11 12:29:41;;;;;;;7.53;1.50;;;11.20;99.90;;;;;;5069103;28;20454;-70
2024/02/11 12:32:11;;;;;;;9.10;1.53;;;11.00;99.90;;;;;;5060962;28;20465;-70
2024/02/11 12:34:42;;;;;;;8.37;1.30;;;10.90;99.90;;;;;;5068367;28;20524;-69
2024/02/11 12:37:11;;;;;;;7.30;1.47;;;11.00;99.90;;;;;;5069089;28;20450;-69
2024/02/11 12:39:43;;;;;;;8.10;1.47;;;11.00;99.90;;;;;;5068817;28;20471;-69
2024/02/11 12:42:10;;;;;;;7.07;1.30;;;11.00;99.90;;;;;;5068040;28;20550;-69
2024/02/11 12:44:38;;;;;;;7.93;1.17;;;10.90;99.90;;;;;;5059659;28;20482;-68
2024/02/11 12:47:08;;;;;;;7.70;1.37;;;10.90;99.90;;;;;;5068772;28;20484;-69
2024/02/11 12:49:38;;;;;;;9.47;1.33;;;10.80;99.90;;;;;;5069093;28;20454;-69
2024/02/11 12:52:07;;;;;;;7.30;1.40;;;10.70;99.90;;;;;;5068305;28;20472;-69
2024/02/11 12:54:37;;;;;;;6.57;0.90;;;10.50;99.90;;;;;;5069139;28;20444;-69
2024/02/11 12:57:07;;;;;;;6.60;1.10;;;10.40;99.90;;;;;;5069723;28;20897;-69